Terminal Aerodrome Forecast
Issued by NWS Cleveland, OH

Home | Current Version | Previous Version | Graphics & Text | Print | Product List | Glossary On
Versions: 1 2 3 4 5 6 7 8 9 10 11 12 13 14 15 16 17 18 19 20 21 22 23 24 25 26 27 28
000
FTUS41 KCLE 220259 CCB
TAFCLE
TAF COR
KCLE 220259Z 2203/2306 16010KT P6SM VCTS BKN060CB
      TEMPO 2203/2204 25010G20KT 2SM -TSRA BKN025CB
     FM220400 25010KT P6SM BKN035
     FM220600 25007KT P6SM BKN025
     FM221500 26012G20KT P6SM SCT035
     FM222200 25010KT P6SM SCT200=

USA.gov is the U.S. government's official web portal to all federal, state and local government web resources and services.